Pede Vento — CRLZ9 — position and weather

sailwx.info

Track history (hours):
 
Tides and Currents Weather Stations Pressure Air Temp Water Temp Dewpoint Dewpoint Depression Visibility Wind Speed Wind Dir Waves Ship Positions

Pede Vento

Last reported at 2015-Aug-30 15:23 UTC. Time now 2015-Sep-05 14:20 UTC.
Position N 38°42' W 009°10'.

Length 12 m.

Type: Sailing vessel. MMSI: 263819560.

Date/timePositionNaut miles runAvg speedWind from/ knotsBaromVisibWave heightAir tempDewpointWater temp
2015-Aug-30 15:23N 38°42' W 009°10'6 7.4
2015-Aug-30 14:33N 38°41' W 009°17'6 6.0
2015-Aug-30 13:33N 38°42' W 009°25'0 0.2
2015-Aug-30 10:33N 38°41' W 009°25'0 0.5
2015-Aug-30 09:33N 38°42' W 009°25'0 0.0
2015-Aug-29 17:13N 38°42' W 009°25'0 0.0
2015-Aug-29 16:22N 38°42' W 009°25'3 3.3
2015-Aug-29 15:33N 38°40' W 009°28'3 2.8
2015-Aug-29 14:28N 38°38' W 009°24'7 7.3
2015-Aug-29 13:33N 38°43' W 009°29'4 3.6
2015-Aug-29 12:33N 38°41' W 009°26'1 1.1
2015-Aug-29 11:33N 38°41' W 009°25'1 0.0
2015-Aug-28 12:27N 38°40' W 009°25'1 0.7
2015-Aug-28 11:33N 38°41' W 009°26'1 1.2
2015-Aug-28 10:33N 38°42' W 009°25'0 0.0
2015-Aug-27 19:30N 38°42' W 009°25'3 2.5
2015-Aug-27 18:23N 38°41' W 009°22'5 5.8
2015-Aug-27 17:32N 38°41' W 009°15'  
Track history (hours):
 
Tides and Currents Weather Stations Pressure Air Temp Water Temp Dewpoint Dewpoint Depression Visibility Wind Speed Wind Dir Waves Ship Positions

Pede Vento

Last reported at 2015-Aug-30 15:23 UTC. Time now 2015-Sep-05 14:20 UTC.
Position N 38°42' W 009°10'.

Length 12 m.

Type: Sailing vessel. MMSI: 263819560.

Date/timePositionNaut miles runAvg speedWind from/ knotsBaromVisibWave heightAir tempDewpointWater temp
2015-Aug-30 15:23N 38°42' W 009°10'6 7.4
2015-Aug-30 14:33N 38°41' W 009°17'6 6.0
2015-Aug-30 13:33N 38°42' W 009°25'0 0.2
2015-Aug-30 10:33N 38°41' W 009°25'0 0.5
2015-Aug-30 09:33N 38°42' W 009°25'0 0.0
2015-Aug-29 17:13N 38°42' W 009°25'0 0.0
2015-Aug-29 16:22N 38°42' W 009°25'3 3.3
2015-Aug-29 15:33N 38°40' W 009°28'3 2.8
2015-Aug-29 14:28N 38°38' W 009°24'7 7.3
2015-Aug-29 13:33N 38°43' W 009°29'4 3.6
2015-Aug-29 12:33N 38°41' W 009°26'1 1.1
2015-Aug-29 11:33N 38°41' W 009°25'1 0.0
2015-Aug-28 12:27N 38°40' W 009°25'1 0.7
2015-Aug-28 11:33N 38°41' W 009°26'1 1.2
2015-Aug-28 10:33N 38°42' W 009°25'0 0.0
2015-Aug-27 19:30N 38°42' W 009°25'3 2.5
2015-Aug-27 18:23N 38°41' W 009°22'5 5.8
2015-Aug-27 17:32N 38°41' W 009°15'  

Dump ship's entire track history